Time;durP1;ratioP1;P1;durP2;ratioP2;P2;SDS_P1;SDS_P2;PMS_P1;PMS_P2;Temp;Humidity;BMP_temperature;BMP_pressure;BME280_temperature;BME280_humidity;BME280_pressure;Samples;Min_cycle;Max_cycle;Signal;HPM_P1;HPM_P2
2021/07/14 00:00:52;;;;;;;10.63;3.72;;;;;;;14.12;97.49;98774.50;5080640;28;20020;-65
2021/07/14 00:03:17;;;;;;;7.78;4.07;;;;;;;14.13;97.82;98765.66;5074746;28;20084;-65
2021/07/14 00:05:42;;;;;;;6.85;3.38;;;;;;;14.17;97.68;98756.69;5055767;28;20013;-65
2021/07/14 00:08:11;;;;;;;5.38;3.28;;;;;;;14.23;98.00;98768.00;5047162;28;20220;-65
2021/07/14 00:10:36;;;;;;;6.55;3.67;;;;;;;14.26;98.00;98759.97;5048429;28;20021;-65
2021/07/14 00:24:03;;;;;;;7.57;3.78;;;;;;;14.30;97.85;98774.81;5048638;28;20052;-65
2021/07/14 00:26:29;;;;;;;5.45;3.20;;;;;;;14.28;97.33;98765.22;5052599;28;20243;-65
2021/07/14 00:28:54;;;;;;;5.47;3.40;;;;;;;14.30;97.30;98755.44;5048465;28;20044;-65
2021/07/14 00:31:21;;;;;;;10.60;4.05;;;;;;;14.33;97.51;98747.41;5048453;28;20075;-65
2021/07/14 00:33:47;;;;;;;9.23;4.10;;;;;;;14.39;97.48;98736.59;5049148;28;20045;-65
2021/07/14 00:36:13;;;;;;;6.00;4.00;;;;;;;14.43;97.86;98727.66;5060592;28;20024;-65
2021/07/14 00:38:39;;;;;;;7.75;3.70;;;;;;;14.45;97.70;98728.44;5059192;28;20037;-65
2021/07/14 00:41:06;;;;;;;4.15;3.28;;;;;;;14.49;97.78;98732.75;5061427;28;20063;-65
2021/07/14 00:43:33;;;;;;;5.80;3.10;;;;;;;14.50;97.63;98738.00;5051211;28;20031;-65
2021/07/14 00:46:19;;;;;;;5.28;3.25;;;;;;;14.53;97.65;98732.56;5048122;28;20029;-65
2021/07/14 00:48:45;;;;;;;5.45;3.38;;;;;;;14.46;97.54;98738.13;5049332;28;20013;-65
2021/07/14 00:51:11;;;;;;;5.95;3.38;;;;;;;14.43;97.75;98748.84;5053123;28;20334;-65
2021/07/14 00:53:36;;;;;;;11.57;4.35;;;;;;;14.45;97.89;98731.09;5058048;28;20092;-65
2021/07/14 00:56:04;;;;;;;7.88;4.10;;;;;;;14.47;97.90;98724.84;5059681;28;20333;-65
2021/07/14 00:58:30;;;;;;;8.30;3.85;;;;;;;14.49;97.73;98727.44;5060202;28;20012;-65
2021/07/14 01:00:55;;;;;;;8.52;4.10;;;;;;;14.49;97.77;98722.16;5055055;28;20202;-65
2021/07/14 01:03:25;;;;;;;6.32;3.88;;;;;;;14.50;97.94;98724.75;5051805;28;20091;-65
2021/07/14 01:05:54;;;;;;;5.88;3.78;;;;;;;14.52;97.95;98722.88;5059903;28;20028;-65
2021/07/14 01:08:27;;;;;;;10.32;4.18;;;;;;;14.59;98.02;98718.28;5057851;28;20029;-65
2021/07/14 01:11:06;;;;;;;6.05;3.80;;;;;;;14.64;98.17;98721.59;5058312;28;20021;-65
2021/07/14 01:13:38;;;;;;;12.23;3.60;;;;;;;14.67;97.89;98732.09;5046888;28;20040;-65
2021/07/14 01:16:07;;;;;;;5.63;3.50;;;;;;;14.68;98.00;98724.09;5047997;28;20352;-65
2021/07/14 01:18:47;;;;;;;7.45;4.07;;;;;;;14.64;98.01;98726.91;5047599;28;20021;-65
2021/07/14 01:21:20;;;;;;;10.20;3.50;;;;;;;14.68;97.94;98729.41;5047667;28;20014;-65
2021/07/14 01:23:52;;;;;;;8.18;3.83;;;;;;;14.70;97.95;98721.41;5047609;28;20324;-66
2021/07/14 01:26:54;;;;;;;6.45;3.72;;;;;;;14.73;97.76;98724.81;5047580;28;20017;-66
2021/07/14 01:29:20;;;;;;;;;;;;;;;14.77;98.08;98720.25;5047951;28;20021;-66
2021/07/14 01:31:49;;;;;;;6.88;3.88;;;;;;;14.79;98.30;98715.78;5057837;28;19948;-66
2021/07/14 01:34:16;;;;;;;5.70;3.40;;;;;;;14.83;98.32;98871.09;5059120;28;20122;-66
2021/07/14 01:36:44;;;;;;;8.38;3.42;;;;;;;14.86;98.05;98765.00;5060677;28;20035;-66
2021/07/14 01:39:10;;;;;;;8.93;4.20;;;;;;;14.87;97.85;98737.56;5059031;28;20017;-66
2021/07/14 01:41:39;;;;;;;7.30;3.50;;;;;;;14.91;97.88;98720.66;5060393;28;20028;-66
2021/07/14 01:44:07;;;;;;;6.68;3.80;;;;;;;14.92;97.62;98696.75;5057562;28;20029;-66
2021/07/14 01:46:36;;;;;;;12.80;4.00;;;;;;;14.90;97.61;98697.72;5057406;28;20304;-66
2021/07/14 01:49:06;;;;;;;6.82;3.67;;;;;;;14.96;97.25;98694.84;5060594;28;20084;-66
2021/07/14 01:51:35;;;;;;;9.40;3.95;;;;;;;14.95;97.07;98698.44;5058991;28;20070;-66
2021/07/14 01:54:04;;;;;;;6.65;3.97;;;;;;;14.92;97.08;98702.06;5059272;28;20227;-66
2021/07/14 01:56:33;;;;;;;9.45;4.45;;;;;;;14.99;96.95;98708.00;5059456;28;20021;-66
2021/07/14 01:59:00;;;;;;;5.50;4.13;;;;;;;15.00;96.51;98700.00;5047780;28;20044;-66
2021/07/14 02:01:27;;;;;;;11.40;4.35;;;;;;;14.97;96.45;98709.84;5057381;28;20350;-66
2021/07/14 02:04:30;;;;;;;7.53;4.25;;;;;;;15.01;96.44;98706.16;5062471;28;20024;-66
2021/07/14 02:06:48;;;;;;;8.52;4.40;;;;;;;15.02;96.48;98723.78;5059781;28;20343;-66
2021/07/14 02:09:14;;;;;;;10.90;4.72;;;;;;;15.00;96.52;98720.34;5060201;28;20032;-66
2021/07/14 02:11:43;;;;;;;7.95;4.93;;;;;;;15.00;96.39;98726.50;5058783;28;20223;-66
2021/07/14 02:14:08;;;;;;;8.93;5.35;;;;;;;15.07;96.39;98727.16;5047040;28;20023;-66
2021/07/14 02:16:34;;;;;;;9.02;5.18;;;;;;;15.05;96.32;98729.84;5049364;28;20025;-66
2021/07/14 02:19:03;;;;;;;10.38;4.90;;;;;;;15.01;96.49;98716.78;5045728;28;20328;-66
2021/07/14 02:21:28;;;;;;;9.20;5.18;;;;;;;14.98;96.35;98711.56;5046999;28;20018;-66
2021/07/14 02:23:54;;;;;;;10.43;5.80;;;;;;;15.00;96.21;98720.34;5045834;28;20024;-66
2021/07/14 02:26:19;;;;;;;7.32;5.38;;;;;;;15.01;96.14;98727.38;5045806;28;20083;-66
2021/07/14 02:28:44;;;;;;;7.43;5.43;;;;;;;15.05;96.28;98726.34;5058401;28;20025;-66
2021/07/14 02:31:10;;;;;;;8.00;5.38;;;;;;;15.06;96.26;98714.81;5060686;28;20037;-66
2021/07/14 02:33:36;;;;;;;10.02;5.00;;;;;;;15.01;96.34;98722.06;5063595;28;20350;-66
2021/07/14 02:36:04;;;;;;;9.50;5.78;;;;;;;14.98;96.15;98716.88;5062297;28;20021;-66
2021/07/14 02:38:59;;;;;;;8.93;4.97;;;;;;;15.00;96.40;98715.06;5063615;28;20044;-66
2021/07/14 02:41:31;;;;;;;11.30;5.97;;;;;;;15.01;96.27;98706.16;5063828;28;20027;-66
2021/07/14 02:44:04;;;;;;;9.52;5.82;;;;;;;15.03;96.69;98705.19;5062233;28;20032;-66
2021/07/14 02:46:35;;;;;;;12.05;6.28;;;;;;;15.00;96.60;98696.50;5057133;28;20021;-66
2021/07/14 02:49:04;;;;;;;12.73;6.30;;;;;;;14.97;96.54;98691.31;5051101;28;20032;-66
2021/07/14 02:51:33;;;;;;;12.50;5.90;;;;;;;15.03;96.47;98699.03;5049721;28;20021;-66
2021/07/14 02:54:05;;;;;;;12.80;6.22;;;;;;;15.02;96.58;98691.97;5050293;28;20048;-66
2021/07/14 02:56:32;;;;;;;11.82;6.68;;;;;;;15.00;96.46;98689.38;5059657;28;20017;-66
2021/07/14 02:59:05;;;;;;;11.73;6.63;;;;;;;15.01;96.78;98692.91;5061966;28;20033;-66
2021/07/14 03:01:33;;;;;;;11.80;6.68;;;;;;;15.04;96.63;98684.84;5062252;28;20322;-66
2021/07/14 03:04:00;;;;;;;14.20;7.05;;;;;;;15.03;96.78;98693.72;5054685;28;20247;-66
2021/07/14 03:06:31;;;;;;;12.95;7.00;;;;;;;14.98;96.41;98700.97;5049866;28;20324;-66
2021/07/14 03:09:03;;;;;;;9.30;6.32;;;;;;;14.99;96.42;98697.38;5050065;28;20025;-66
2021/07/14 03:11:30;;;;;;;13.10;6.00;;;;;;;14.98;96.25;98693.91;5050005;28;20021;-66
2021/07/14 03:13:56;;;;;;;11.18;6.35;;;;;;;15.03;96.61;98704.34;5049905;28;20036;-66
2021/07/14 03:16:24;;;;;;;14.25;6.50;;;;;;;14.99;96.61;98697.38;5049253;28;20017;-66
2021/07/14 03:18:50;;;;;;;9.32;5.68;;;;;;;14.99;96.60;98686.78;5048879;28;20092;-66
2021/07/14 03:21:17;;;;;;;11.90;6.32;;;;;;;14.97;96.71;98700.09;5049786;28;20047;-66
2021/07/14 03:23:43;;;;;;;8.88;5.95;;;;;;;14.99;96.66;98698.28;5048566;28;20017;-66
2021/07/14 03:26:09;;;;;;;10.57;6.53;;;;;;;14.96;96.55;98686.91;5048884;28;20033;-66
2021/07/14 03:28:38;;;;;;;13.73;5.80;;;;;;;14.99;96.41;98687.66;5049264;28;20025;-66
2021/07/14 03:31:05;;;;;;;15.43;6.90;;;;;;;15.00;96.17;98694.69;5049566;28;20096;-66
2021/07/14 03:33:32;;;;;;;21.42;7.35;;;;;;;14.97;96.78;98686.00;5048424;28;20025;-66
2021/07/14 03:35:59;;;;;;;12.35;6.65;;;;;;;14.98;96.76;98688.59;5049434;28;20055;-66
2021/07/14 03:38:30;;;;;;;12.15;6.85;;;;;;;14.99;96.27;98692.09;5048638;28;20075;-66
2021/07/14 03:40:58;;;;;;;13.73;7.10;;;;;;;14.98;96.39;98693.91;5049884;28;20040;-66
2021/07/14 03:43:25;;;;;;;11.23;7.38;;;;;;;14.95;96.16;98695.78;5048987;28;20399;-66
2021/07/14 03:45:53;;;;;;;13.55;6.93;;;;;;;15.01;96.50;98690.25;5048526;28;20021;-66
2021/07/14 03:48:21;;;;;;;17.15;6.55;;;;;;;15.04;96.61;98690.16;5049269;28;20075;-66
2021/07/14 03:50:47;;;;;;;10.95;5.97;;;;;;;15.04;96.80;98685.69;5048122;28;20315;-66
2021/07/14 03:53:16;;;;;;;12.30;6.57;;;;;;;15.01;96.57;98690.25;5049128;28;20216;-66
2021/07/14 03:55:41;;;;;;;10.65;6.30;;;;;;;15.02;96.52;98691.97;5048036;28;20045;-66
2021/07/14 03:58:07;;;;;;;10.20;6.57;;;;;;;15.05;96.57;98689.22;5049024;28;20022;-66
2021/07/14 04:00:32;;;;;;;12.45;6.78;;;;;;;15.07;96.71;98690.03;5049436;28;20080;-66
2021/07/14 04:02:58;;;;;;;9.73;5.65;;;;;;;15.07;96.93;98690.03;5058170;28;20280;-66
2021/07/14 04:05:24;;;;;;;11.20;7.05;;;;;;;15.03;96.87;98699.03;5057735;28;20067;-66
2021/07/14 04:07:52;;;;;;;10.45;5.97;;;;;;;15.05;96.69;98691.88;5053162;28;20266;-66
2021/07/14 04:10:17;;;;;;;10.45;5.70;;;;;;;15.08;96.58;98681.16;5048247;28;20084;-66
2021/07/14 04:12:43;;;;;;;12.10;5.43;;;;;;;15.06;96.79;98675.03;5047962;28;20029;-66
2021/07/14 04:15:09;;;;;;;8.88;5.38;;;;;;;15.10;96.85;98690.78;5047862;28;20264;-66
2021/07/14 04:17:34;;;;;;;9.90;5.10;;;;;;;15.09;96.47;98689.06;5050156;28;20021;-66
2021/07/14 04:20:01;;;;;;;8.57;4.38;;;;;;;15.13;96.51;98681.88;5049600;28;20037;-66
2021/07/14 04:22:26;;;;;;;7.80;5.22;;;;;;;15.10;96.60;98677.53;5050038;28;20082;-66
2021/07/14 04:24:52;;;;;;;6.80;4.30;;;;;;;15.12;96.22;98683.66;5050177;28;20068;-66
2021/07/14 04:27:17;;;;;;;12.07;5.30;;;;;;;15.14;96.27;98692.41;5059352;28;20185;-65
2021/07/14 04:29:42;;;;;;;7.45;4.80;;;;;;;15.12;96.25;98690.72;5060609;28;20262;-65
2021/07/14 04:32:08;;;;;;;5.55;4.15;;;;;;;15.12;96.35;98685.41;5055843;28;20025;-65
2021/07/14 04:34:34;;;;;;;7.18;4.38;;;;;;;15.14;96.41;98675.63;5056027;28;20021;-65
2021/07/14 04:36:59;;;;;;;8.88;4.93;;;;;;;15.21;96.08;98677.13;5045006;28;20020;-65
2021/07/14 04:39:25;;;;;;;7.13;5.57;;;;;;;15.19;95.96;98679.00;5057330;28;20040;-65
2021/07/14 04:41:50;;;;;;;8.98;5.18;;;;;;;15.21;95.91;98676.28;5054719;28;20311;-65
2021/07/14 04:44:34;;;;;;;11.80;5.45;;;;;;;15.20;95.69;98667.47;5055765;28;20021;-65
2021/07/14 04:47:00;;;;;;;11.27;6.40;;;;;;;15.22;95.56;98668.25;5044717;28;20368;-65
2021/07/14 04:49:25;;;;;;;9.18;4.80;;;;;;;15.25;95.26;98662.81;5044641;28;20064;-65
2021/07/14 04:51:51;;;;;;;10.75;4.95;;;;;;;15.29;95.85;98672.44;5044625;28;20036;-65
2021/07/14 04:54:16;;;;;;;12.02;5.32;;;;;;;15.25;95.79;98652.22;5044062;28;20319;-65
2021/07/14 04:56:44;;;;;;;9.80;5.00;;;;;;;15.31;96.18;98667.06;5044654;28;20338;-65
2021/07/14 04:59:09;;;;;;;6.90;4.97;;;;;;;15.30;95.78;98660.00;5044404;28;20032;-65
2021/07/14 05:01:35;;;;;;;8.45;4.75;;;;;;;15.41;95.25;98664.00;5044417;28;20094;-65
2021/07/14 05:04:00;;;;;;;11.35;4.50;;;;;;;15.37;94.88;98673.03;5044360;28;20213;-65
2021/07/14 05:06:25;;;;;;;5.93;4.47;;;;;;;15.40;94.77;98672.91;5044195;28;20064;-65
2021/07/14 05:08:52;;;;;;;8.23;3.97;;;;;;;15.40;94.79;98670.25;5044323;28;20350;-65
2021/07/14 05:11:17;;;;;;;8.30;4.43;;;;;;;15.44;95.02;98677.16;5044273;28;20339;-65
2021/07/14 05:13:42;;;;;;;10.50;4.68;;;;;;;15.45;94.55;98676.25;5044265;28;20022;-65
2021/07/14 05:16:08;;;;;;;10.38;5.18;;;;;;;15.45;94.13;98664.78;5044223;28;20029;-65
2021/07/14 05:18:34;;;;;;;7.90;4.22;;;;;;;15.49;94.46;98663.72;5044174;28;20252;-65
2021/07/14 05:21:00;;;;;;;5.78;3.92;;;;;;;15.50;94.49;98657.53;5044062;28;20067;-65
2021/07/14 05:23:26;;;;;;;7.65;4.10;;;;;;;15.51;94.38;98665.41;5043050;28;20033;-65
2021/07/14 05:25:51;;;;;;;7.35;4.32;;;;;;;15.52;94.10;98659.19;5044068;28;20025;-65
2021/07/14 05:28:16;;;;;;;9.15;4.35;;;;;;;15.58;94.45;98655.41;5044065;28;20028;-65
2021/07/14 05:30:42;;;;;;;5.20;3.83;;;;;;;15.61;94.45;98664.13;5044034;28;20022;-65
2021/07/14 05:33:07;;;;;;;9.23;4.97;;;;;;;15.58;94.31;98663.38;5043987;28;20031;-65
2021/07/14 05:35:33;;;;;;;7.00;3.63;;;;;;;15.64;94.23;98666.66;5043946;28;20122;-65
2021/07/14 05:37:58;;;;;;;7.30;3.30;;;;;;;15.65;93.94;98662.22;5043963;28;20257;-65
2021/07/14 05:40:24;;;;;;;11.18;3.88;;;;;;;15.63;93.53;98661.44;5043816;28;20032;-65
2021/07/14 05:42:50;;;;;;;6.25;3.45;;;;;;;15.67;93.58;98674.50;5043931;28;20064;-65
2021/07/14 05:45:16;;;;;;;6.90;3.80;;;;;;;15.70;94.49;98666.44;5043869;28;20088;-65
2021/07/14 05:47:41;;;;;;;8.32;4.13;;;;;;;15.67;93.25;98666.56;5043842;28;20036;-65
2021/07/14 05:50:08;;;;;;;9.27;4.93;;;;;;;15.74;93.34;98676.00;5043824;28;20060;-65
2021/07/14 05:52:33;;;;;;;7.68;4.05;;;;;;;15.74;93.05;98681.31;5043780;28;20320;-65
2021/07/14 05:54:59;;;;;;;9.30;4.05;;;;;;;15.75;93.29;98682.19;5043774;28;20024;-65
2021/07/14 05:57:25;;;;;;;9.70;4.55;;;;;;;15.72;93.68;98674.34;5043728;28;20216;-65
2021/07/14 05:59:50;;;;;;;9.60;4.70;;;;;;;15.79;93.67;98663.41;5043725;28;20028;-65
2021/07/14 06:02:17;;;;;;;8.27;4.18;;;;;;;15.73;93.16;98655.69;5043676;28;20032;-65
2021/07/14 06:04:42;;;;;;;6.70;4.15;;;;;;;15.76;93.33;98649.41;5043625;28;20312;-65
2021/07/14 06:07:08;;;;;;;7.25;4.47;;;;;;;15.82;93.30;98655.31;5046747;28;20036;-65
2021/07/14 06:09:34;;;;;;;6.82;4.30;;;;;;;15.91;93.17;98654.94;5047640;28;20281;-65
2021/07/14 06:11:59;;;;;;;8.68;4.28;;;;;;;15.94;92.15;98651.28;5047615;28;20021;-65
2021/07/14 06:14:25;;;;;;;9.93;5.53;;;;;;;15.94;92.63;98653.94;5047555;28;20258;-65
2021/07/14 06:16:51;;;;;;;6.38;4.25;;;;;;;15.96;92.80;98658.28;5047505;28;20197;-65
2021/07/14 06:19:17;;;;;;;12.55;4.55;;;;;;;16.01;92.68;98661.63;5047379;28;20030;-65
2021/07/14 06:21:42;;;;;;;8.60;3.85;;;;;;;16.04;91.80;98650.88;5047533;28;20029;-65
2021/07/14 06:24:08;;;;;;;6.32;4.32;;;;;;;16.08;92.17;98647.19;5047408;28;20021;-65
2021/07/14 06:26:34;;;;;;;7.68;3.97;;;;;;;16.13;91.12;98644.31;5046202;28;20075;-65
2021/07/14 06:28:59;;;;;;;5.60;3.88;;;;;;;16.37;90.89;98660.13;5047253;28;20056;-65
2021/07/14 06:31:24;;;;;;;9.32;4.07;;;;;;;16.47;89.81;98656.16;5047291;28;20013;-65
2021/07/14 06:33:50;;;;;;;6.72;4.15;;;;;;;16.56;90.83;98676.16;5047209;28;20037;-65
2021/07/14 06:36:15;;;;;;;5.57;3.88;;;;;;;16.68;89.44;98670.34;5047169;28;20185;-65
2021/07/14 06:38:41;;;;;;;6.00;3.60;;;;;;;16.73;89.19;98663.88;5047138;28;20021;-65
2021/07/14 06:41:06;;;;;;;8.15;3.95;;;;;;;16.81;89.43;98672.38;5046991;28;20024;-65
2021/07/14 06:43:41;;;;;;;4.30;3.28;;;;;;;16.82;88.69;98668.81;5047023;28;20096;-65
2021/07/14 06:46:08;;;;;;;4.13;3.17;;;;;;;16.78;90.07;98667.22;5047010;28;20071;-65
2021/07/14 06:48:33;;;;;;;7.95;3.45;;;;;;;16.76;89.49;98666.41;5046919;28;20025;-65
2021/07/14 06:50:59;;;;;;;7.32;3.40;;;;;;;16.80;89.31;98662.69;5046913;28;20025;-65
2021/07/14 06:53:24;;;;;;;6.72;3.55;;;;;;;16.84;89.42;98661.59;5046828;28;20320;-65
2021/07/14 06:55:50;;;;;;;5.10;3.50;;;;;;;16.85;88.74;98660.69;5046842;28;20275;-65
2021/07/14 06:58:15;;;;;;;6.32;3.60;;;;;;;16.79;89.54;98668.94;5046752;28;20076;-65
2021/07/14 07:00:40;;;;;;;7.50;3.78;;;;;;;16.70;89.97;98658.69;5046695;28;20216;-65
2021/07/14 07:03:06;;;;;;;6.22;3.85;;;;;;;16.63;89.75;98657.25;5045470;28;20037;-65
2021/07/14 07:05:31;;;;;;;4.32;3.30;;;;;;;16.64;89.64;98653.66;5046616;28;20123;-65
2021/07/14 07:07:57;;;;;;;4.95;3.80;;;;;;;16.63;90.03;98649.25;5046402;28;20044;-65
2021/07/14 07:10:22;;;;;;;6.45;4.28;;;;;;;16.69;90.50;98662.28;5046534;28;20048;-65
2021/07/14 07:12:48;;;;;;;4.72;3.60;;;;;;;16.68;90.67;98909.53;5046451;28;20025;-65
2021/07/14 07:15:18;;;;;;;5.88;3.75;;;;;;;16.73;90.93;98761.34;5046495;28;20021;-65
2021/07/14 07:17:43;;;;;;;7.32;4.05;;;;;;;16.81;90.11;98746.81;5045880;28;20029;-65
2021/07/14 07:20:10;;;;;;;8.02;3.30;;;;;;;16.84;89.78;98720.09;5046307;28;20273;-65
2021/07/14 07:22:35;;;;;;;7.15;3.25;;;;;;;16.83;89.74;98729.00;5046523;28;20319;-65
2021/07/14 07:25:02;;;;;;;8.52;3.22;;;;;;;16.85;90.21;98716.53;5046275;28;20022;-65
2021/07/14 07:27:33;;;;;;;8.63;3.10;;;;;;;16.79;89.15;98698.19;5046241;28;20021;-65
2021/07/14 07:29:58;;;;;;;5.95;2.78;;;;;;;16.76;89.66;98695.66;5046227;28;20025;-65
2021/07/14 07:32:24;;;;;;;6.80;3.53;;;;;;;16.78;89.56;98682.28;5046109;28;20261;-65
2021/07/14 07:34:49;;;;;;;5.50;3.35;;;;;;;16.73;89.31;98690.47;5046082;28;20026;-65
2021/07/14 07:37:15;;;;;;;4.97;3.17;;;;;;;16.86;90.12;98696.09;5046049;28;20029;-65
2021/07/14 07:39:42;;;;;;;6.13;2.80;;;;;;;16.91;90.45;98688.81;5045917;28;20025;-65
2021/07/14 07:42:07;;;;;;;4.18;2.58;;;;;;;16.96;89.79;98682.34;5045932;28;20229;-65
2021/07/14 07:44:32;;;;;;;3.13;2.58;;;;;;;16.91;88.87;98679.03;5046139;28;20021;-65
2021/07/14 07:46:58;;;;;;;4.60;2.60;;;;;;;16.99;89.30;98689.31;5045889;28;20355;-65
2021/07/14 07:49:24;;;;;;;3.10;2.60;;;;;;;16.97;88.43;98689.41;5045812;28;20029;-65
2021/07/14 07:51:50;;;;;;;9.02;2.72;;;;;;;16.98;88.77;98685.81;5045756;28;20025;-65
2021/07/14 07:54:15;;;;;;;6.45;2.40;;;;;;;17.03;88.75;98682.94;5045755;28;20057;-65
2021/07/14 07:56:41;;;;;;;3.00;2.53;;;;;;;17.06;88.21;98694.31;5045673;28;20025;-65
2021/07/14 07:59:06;;;;;;;4.65;2.70;;;;;;;17.06;89.20;98677.50;5045562;28;20036;-65
2021/07/14 08:01:32;;;;;;;2.72;2.15;;;;;;;17.11;89.58;98676.34;5045566;28;20325;-65
2021/07/14 08:03:57;;;;;;;3.30;2.47;;;;;;;17.08;88.44;98676.50;5045457;28;20397;-65
2021/07/14 08:06:22;;;;;;;3.95;2.30;;;;;;;17.15;88.34;98675.28;5045303;28;20061;-65
2021/07/14 08:08:48;;;;;;;5.88;2.70;;;;;;;16.91;88.33;98663.09;5045454;28;20328;-65
2021/07/14 08:11:13;;;;;;;7.07;2.63;;;;;;;17.08;88.53;98671.16;5045379;28;20021;-65
2021/07/14 08:13:39;;;;;;;2.85;2.30;;;;;;;17.03;88.80;98662.53;5045582;28;20057;-65
2021/07/14 08:16:04;;;;;;;3.58;2.33;;;;;;;17.07;88.27;98664.13;5045296;28;20032;-65
2021/07/14 08:18:30;;;;;;;3.15;2.17;;;;;;;17.05;88.59;98655.34;5045220;28;20025;-65
2021/07/14 08:20:56;;;;;;;4.30;2.05;;;;;;;17.03;88.49;98656.34;5045099;28;20029;-65
2021/07/14 08:23:22;;;;;;;3.22;1.92;;;;;;;16.94;87.72;98647.00;5045426;28;20025;-65
2021/07/14 08:25:51;;;;;;;2.60;1.88;;;;;;;16.91;88.71;98644.47;5045122;28;20021;-65
2021/07/14 08:28:17;;;;;;;6.57;1.80;;;;;;;16.92;88.15;98642.66;5044248;28;20029;-65
2021/07/14 08:30:42;;;;;;;4.80;2.20;;;;;;;16.96;88.44;98645.13;5045040;28;20026;-65
2021/07/14 08:33:08;;;;;;;3.88;2.03;;;;;;;16.93;88.86;98642.59;5044993;28;20044;-65
2021/07/14 08:35:33;;;;;;;2.85;2.15;;;;;;;16.83;89.22;98638.63;5044957;28;20052;-65
2021/07/14 08:37:58;;;;;;;4.32;2.30;;;;;;;16.87;88.22;98644.69;5044860;28;20022;-65
2021/07/14 08:40:24;;;;;;;3.13;2.10;;;;;;;16.81;88.53;98639.63;5044750;28;20025;-65
2021/07/14 08:42:52;;;;;;;2.40;2.20;;;;;;;16.78;88.40;98650.41;5044791;28;20320;-65
2021/07/14 08:45:20;;;;;;;4.40;2.40;;;;;;;16.89;90.02;98659.63;5044723;28;20021;-65
2021/07/14 08:47:47;;;;;;;2.95;2.20;;;;;;;16.81;89.08;98672.38;5044688;28;20025;-65
2021/07/14 08:50:14;;;;;;;4.05;2.47;;;;;;;16.93;88.17;98674.50;5044928;28;20025;-65
2021/07/14 08:52:42;;;;;;;2.88;2.58;;;;;;;16.93;89.53;98703.75;5044594;28;20032;-65
2021/07/14 08:55:12;;;;;;;2.72;2.15;;;;;;;16.93;88.25;98679.81;5044540;28;20029;-65
2021/07/14 08:57:38;;;;;;;4.00;2.40;;;;;;;16.95;88.71;98699.25;5044552;28;20067;-65
2021/07/14 09:00:07;;;;;;;2.58;2.20;;;;;;;16.90;89.09;98677.28;5044429;28;20328;-65
2021/07/14 09:02:34;;;;;;;2.90;2.22;;;;;;;16.88;89.73;98672.97;5044440;28;20029;-65
2021/07/14 09:04:59;;;;;;;4.22;2.20;;;;;;;16.81;89.41;98675.03;5043156;28;20243;-65
2021/07/14 09:07:25;;;;;;;2.83;2.00;;;;;;;16.76;90.31;98666.41;5044252;28;20064;-65
2021/07/14 09:09:50;;;;;;;3.47;2.05;;;;;;;16.79;90.40;98668.06;5044315;28;20096;-65
2021/07/14 09:12:16;;;;;;;5.40;2.10;;;;;;;16.73;89.89;98669.19;5044292;28;20088;-65
2021/07/14 09:14:42;;;;;;;4.55;2.45;;;;;;;16.73;90.38;98663.88;5044281;28;20336;-65
2021/07/14 09:17:19;;;;;;;3.33;2.40;;;;;;;16.76;89.64;98654.91;5044235;28;20088;-65
2021/07/14 09:19:45;;;;;;;4.82;2.15;;;;;;;16.80;89.89;98649.38;5044150;28;20017;-65
2021/07/14 09:22:22;;;;;;;2.85;2.47;;;;;;;16.86;89.21;98657.09;5044131;28;20029;-65
2021/07/14 09:24:48;;;;;;;4.13;2.63;;;;;;;16.99;88.87;98650.31;5044380;28;20017;-65
2021/07/14 09:27:27;;;;;;;7.20;2.70;;;;;;;17.04;87.82;98648.31;5044057;28;20078;-65
2021/07/14 09:30:23;;;;;;;2.97;2.22;;;;;;;17.10;87.82;98652.47;5044352;28;20235;-65
2021/07/14 09:32:57;;;;;;;5.40;2.20;;;;;;;17.23;87.84;98643.88;5035848;28;20044;-65
2021/07/14 09:35:26;;;;;;;3.75;2.10;;;;;;;17.25;88.03;98655.31;5044008;28;20308;-65
2021/07/14 09:37:51;;;;;;;6.13;2.50;;;;;;;17.27;87.41;98662.38;5043941;28;20025;-65
2021/07/14 09:40:18;;;;;;;3.85;2.40;;;;;;;17.21;87.35;98656.38;5043735;28;20032;-65
2021/07/14 09:42:59;;;;;;;4.95;2.47;;;;;;;17.18;87.81;98648.53;5043970;28;20313;-65
2021/07/14 09:45:36;;;;;;;5.68;2.28;;;;;;;17.13;87.54;98655.88;5043854;28;20049;-65
2021/07/14 09:48:03;;;;;;;2.55;2.17;;;;;;;17.17;87.75;98654.81;5044107;28;20025;-65
2021/07/14 09:50:34;;;;;;;1.90;1.60;;;;;;;17.21;87.98;98669.69;5043850;28;20021;-65
2021/07/14 09:53:08;;;;;;;2.05;1.85;;;;;;;17.25;87.61;98676.59;5043786;28;20024;-65
2021/07/14 09:55:35;;;;;;;3.25;2.65;;;;;;;17.24;87.82;98682.84;5043791;28;20096;-65
2021/07/14 09:58:12;;;;;;;2.83;2.00;;;;;;;17.20;87.58;98765.50;5043747;28;20021;-65
2021/07/14 10:00:49;;;;;;;3.28;2.15;;;;;;;17.10;87.85;98711.88;5043661;28;20366;-65
2021/07/14 10:03:20;;;;;;;5.35;2.10;;;;;;;17.13;88.21;98708.19;5043633;28;20029;-65
2021/07/14 10:05:46;;;;;;;2.20;1.90;;;;;;;17.11;87.59;98713.59;5043687;28;20029;-65
2021/07/14 10:08:19;;;;;;;3.95;2.13;;;;;;;17.09;87.58;98704.81;5043547;28;20048;-65
2021/07/14 10:10:48;;;;;;;2.67;1.60;;;;;;;17.02;87.83;98708.66;5043635;28;20025;-65
2021/07/14 10:13:14;;;;;;;6.80;1.85;;;;;;;17.00;87.54;98702.53;5043596;28;20185;-65
2021/07/14 10:15:40;;;;;;;2.95;1.90;;;;;;;17.07;88.53;98706.69;5043626;28;20026;-65
2021/07/14 10:18:11;;;;;;;2.45;1.83;;;;;;;17.05;87.76;98703.22;5043578;28;20067;-65
2021/07/14 10:20:38;;;;;;;2.58;2.03;;;;;;;17.01;88.49;98712.28;5043537;28;20025;-65
2021/07/14 10:23:12;;;;;;;2.72;2.05;;;;;;;17.12;88.62;98712.66;5043545;28;20025;-65
2021/07/14 10:25:40;;;;;;;2.70;1.40;;;;;;;17.15;87.65;98709.84;5043532;28;20029;-65
2021/07/14 10:28:07;;;;;;;2.25;1.60;;;;;;;17.13;87.79;98700.22;5043515;28;20032;-65
2021/07/14 10:30:33;;;;;;;2.92;1.60;;;;;;;17.16;88.53;98708.94;5043440;28;20022;-65
2021/07/14 10:32:59;;;;;;;4.13;2.00;;;;;;;17.15;87.59;98704.53;5043431;28;20029;-65
2021/07/14 10:35:28;;;;;;;2.85;1.75;;;;;;;17.11;87.27;98702.94;5043406;28;20398;-65
2021/07/14 10:38:01;;;;;;;3.33;1.77;;;;;;;17.04;87.64;98698.84;5043342;28;20033;-65
2021/07/14 10:40:27;;;;;;;2.47;2.25;;;;;;;17.14;86.79;98702.81;5043318;28;20088;-65
2021/07/14 10:42:54;;;;;;;2.28;1.60;;;;;;;17.16;86.19;98706.28;5043368;28;20029;-65
2021/07/14 10:45:20;;;;;;;5.07;1.90;;;;;;;17.02;87.20;98735.25;5043420;28;20324;-65
2021/07/14 10:47:47;;;;;;;2.42;1.77;;;;;;;17.06;87.49;98688.13;5043586;28;20025;-65
2021/07/14 10:50:15;;;;;;;1.92;1.50;;;;;;;17.13;86.94;98690.47;5043255;28;20197;-65
2021/07/14 10:52:41;;;;;;;2.22;1.60;;;;;;;17.07;87.55;98685.41;5045388;28;20022;-65
2021/07/14 10:55:15;;;;;;;2.17;1.65;;;;;;;17.07;87.13;98674.78;5046826;28;20021;-65
2021/07/14 10:57:41;;;;;;;4.53;1.77;;;;;;;17.03;87.93;98667.00;5046825;28;20053;-65
2021/07/14 11:00:09;;;;;;;2.45;1.92;;;;;;;17.01;87.31;98661.75;5046675;28;20028;-65
2021/07/14 11:02:47;;;;;;;5.82;1.95;;;;;;;17.02;88.21;98671.44;5046565;28;20274;-65
2021/07/14 11:05:14;;;;;;;3.25;1.73;;;;;;;17.03;87.56;99034.00;5046714;28;20027;-65
2021/07/14 11:07:45;;;;;;;2.40;1.67;;;;;;;17.02;88.46;98868.22;5046430;28;20112;-65
2021/07/14 11:10:30;;;;;;;2.92;1.77;;;;;;;17.03;87.89;98858.47;5046611;28;20085;-65
2021/07/14 11:12:57;;;;;;;4.13;1.92;;;;;;;17.00;87.53;98854.13;5046528;28;20304;-65
2021/07/14 11:15:34;;;;;;;4.38;1.80;;;;;;;17.08;87.06;98812.13;5046447;28;20018;-65
2021/07/14 11:18:29;;;;;;;3.72;1.77;;;;;;;17.10;87.18;98786.34;5046433;28;20021;-65
2021/07/14 11:20:55;;;;;;;2.03;1.70;;;;;;;17.14;88.28;98782.59;5046303;28;20068;-65
2021/07/14 11:23:23;;;;;;;2.03;1.52;;;;;;;17.13;87.70;98759.63;5046347;28;20036;-65
2021/07/14 11:25:50;;;;;;;3.00;1.75;;;;;;;17.16;88.00;98753.28;5046325;28;20084;-65
2021/07/14 11:28:17;;;;;;;4.60;1.75;;;;;;;17.12;88.13;98757.88;5046231;28;20025;-65
2021/07/14 11:30:48;;;;;;;4.18;1.55;;;;;;;17.16;87.81;98766.59;5046150;28;20029;-65
2021/07/14 11:33:20;;;;;;;4.53;2.33;;;;;;;17.22;88.11;98759.19;5046213;28;20092;-65
2021/07/14 11:36:05;;;;;;;3.60;2.55;;;;;;;17.16;87.70;98742.66;5046167;28;20254;-65
2021/07/14 11:38:42;;;;;;;5.07;2.53;;;;;;;17.11;88.02;98742.84;5046098;28;20116;-65
2021/07/14 11:41:17;;;;;;;3.45;2.45;;;;;;;17.10;88.49;98737.59;5045944;28;20328;-65
2021/07/14 11:43:43;;;;;;;3.90;2.08;;;;;;;17.12;88.33;98733.94;5045987;28;20072;-65
2021/07/14 11:46:15;;;;;;;2.45;2.00;;;;;;;17.16;88.35;98732.88;5045917;28;20247;-65